Time;durP1;ratioP1;P1;durP2;ratioP2;P2;SDS_P1;SDS_P2;PMS_P1;PMS_P2;Temp;Humidity;BMP_temperature;BMP_pressure;BME280_temperature;BME280_humidity;BME280_pressure;Samples;Min_cycle;Max_cycle;Signal;HPM_P1;HPM_P2
2022/08/01 00:00:56;;;;;;;1.20;1.10;;;25.80;55.90;;;;;;5068854;28;20950;-80
2022/08/01 00:03:25;;;;;;;1.37;1.27;;;25.70;56.70;;;;;;5066706;28;21214;-80
2022/08/01 00:05:53;;;;;;;1.50;1.40;;;25.70;56.30;;;;;;5072753;28;20507;-80
2022/08/01 00:08:21;;;;;;;1.77;1.40;;;25.70;56.20;;;;;;5074428;28;20474;-80
2022/08/01 00:10:50;;;;;;;1.90;1.70;;;25.60;54.90;;;;;;5074941;28;20934;-80
2022/08/01 00:13:19;;;;;;;2.00;1.80;;;25.60;55.60;;;;;;5070260;28;20441;-80
2022/08/01 00:15:47;;;;;;;1.40;1.30;;;25.50;57.20;;;;;;5069606;28;20462;-78
2022/08/01 00:18:21;;;;;;;1.80;1.17;;;25.50;55.10;;;;;;5061724;28;20478;-80
2022/08/01 00:20:49;;;;;;;1.83;1.50;;;25.50;70.40;;;;;;5071930;28;20446;-80
2022/08/01 00:23:17;;;;;;;1.30;1.20;;;25.50;55.00;;;;;;5073941;28;20455;-80
2022/08/01 00:25:45;;;;;;;1.37;1.27;;;25.40;53.40;;;;;;5072134;28;20470;-82
2022/08/01 00:28:16;;;;;;;1.40;1.30;;;25.30;53.50;;;;;;5076636;28;20470;-80
2022/08/01 00:30:44;;;;;;;2.40;1.40;;;25.40;56.20;;;;;;5072436;28;20445;-80
2022/08/01 00:33:12;;;;;;;1.40;1.30;;;25.30;53.70;;;;;;5066705;28;20461;-80
2022/08/01 00:35:40;;;;;;;1.60;1.50;;;25.30;57.20;;;;;;5076209;28;20457;-86
2022/08/01 00:38:08;;;;;;;1.50;1.40;;;25.30;54.10;;;;;;5067119;28;20474;-79
2022/08/01 00:40:36;;;;;;;1.60;1.50;;;25.30;54.40;;;;;;5074548;28;20458;-80
2022/08/01 00:43:04;;;;;;;2.13;1.40;;;25.30;56.10;;;;;;5076391;28;20451;-80
2022/08/01 00:45:34;;;;;;;1.60;1.50;;;25.20;57.00;;;;;;5069953;28;20479;-80
2022/08/01 00:48:02;;;;;;;1.40;1.30;;;25.30;55.50;;;;;;5071722;28;20474;-80
2022/08/01 00:50:30;;;;;;;1.50;1.40;;;25.20;54.20;;;;;;5074697;28;20512;-80
2022/08/01 00:53:00;;;;;;;1.57;1.47;;;25.20;53.80;;;;;;5064848;28;20462;-80
2022/08/01 00:55:29;;;;;;;1.47;1.37;;;25.20;68.20;;;;;;5068349;28;20496;-82
2022/08/01 00:57:58;;;;;;;2.13;1.77;;;25.20;52.50;;;;;;5072700;28;20524;-81
2022/08/01 01:00:36;;;;;;;1.30;1.20;;;25.20;70.00;;;;;;5073179;28;20454;-81
2022/08/01 01:03:22;;;;;;;1.50;1.40;;;25.20;53.20;;;;;;5076090;28;20481;-81
2022/08/01 01:06:20;;;;;;;1.67;1.57;;;25.20;53.90;;;;;;5067273;28;20471;-80
2022/08/01 01:08:55;;;;;;;1.97;1.60;;;25.30;53.60;;;;;;5070547;28;20553;-82
2022/08/01 01:11:29;;;;;;;1.63;1.53;;;25.30;54.00;;;;;;5073055;28;20442;-80
2022/08/01 01:14:05;;;;;;;1.90;1.40;;;25.30;54.40;;;;;;5064487;28;20981;-80
2022/08/01 01:16:37;;;;;;;2.17;1.50;;;25.30;55.60;;;;;;5069879;28;20491;-80
2022/08/01 01:19:09;;;;;;;2.20;2.00;;;25.30;72.30;;;;;;5073791;28;20466;-81
2022/08/01 01:21:58;;;;;;;1.63;1.53;;;25.20;55.00;;;;;;5071256;28;20819;-81
2022/08/01 01:24:38;;;;;;;1.40;1.30;;;25.20;54.40;;;;;;5067563;28;20451;-80
2022/08/01 01:27:15;;;;;;;1.30;1.20;;;25.20;54.90;;;;;;5069934;28;20884;-80
2022/08/01 01:29:49;;;;;;;2.50;1.50;;;25.10;55.00;;;;;;5066091;28;20840;-79
2022/08/01 01:32:33;;;;;;;2.27;1.60;;;25.10;55.00;;;;;;5075140;28;20446;-81
2022/08/01 01:35:06;;;;;;;1.50;1.40;;;25.10;55.70;;;;;;5072881;28;20810;-80
2022/08/01 01:37:36;;;;;;;1.77;1.67;;;25.10;58.70;;;;;;5066785;28;20452;-80
2022/08/01 01:40:06;;;;;;;2.00;1.90;;;25.10;56.00;;;;;;5071626;28;22208;-81
2022/08/01 01:42:35;;;;;;;1.87;1.67;;;25.10;56.30;;;;;;5070837;28;20685;-82
2022/08/01 01:45:08;;;;;;;2.07;1.43;;;25.00;56.70;;;;;;5071661;28;20459;-80
2022/08/01 01:47:39;;;;;;;1.50;1.40;;;25.10;56.80;;;;;;5070183;28;20474;-83
2022/08/01 01:50:09;;;;;;;2.40;1.60;;;25.00;56.90;;;;;;5072967;28;20832;-81
2022/08/01 01:52:39;;;;;;;1.50;1.40;;;25.00;57.60;;;;;;5064646;28;20519;-80
2022/08/01 01:55:09;;;;;;;1.80;1.50;;;25.00;57.40;;;;;;5072153;28;20450;-81
2022/08/01 01:57:42;;;;;;;2.17;1.70;;;25.00;57.00;;;;;;5071716;28;20455;-80
2022/08/01 02:00:14;;;;;;;1.87;1.77;;;25.00;57.30;;;;;;5071619;28;20459;-81
2022/08/01 02:02:45;;;;;;;1.67;1.30;;;25.00;57.40;;;;;;5073624;28;20526;-79
2022/08/01 02:05:14;;;;;;;1.57;1.40;;;25.00;57.90;;;;;;5064918;28;20982;-80
2022/08/01 02:07:47;;;;;;;1.70;1.60;;;25.00;60.30;;;;;;5066712;28;20979;-80
2022/08/01 02:10:18;;;;;;;1.70;1.53;;;25.00;59.20;;;;;;5076005;28;20508;-85
2022/08/01 02:12:49;;;;;;;1.50;1.40;;;24.90;57.70;;;;;;5070531;28;20577;-81
2022/08/01 02:15:20;;;;;;;1.67;1.57;;;24.90;58.20;;;;;;5064689;28;20447;-81
2022/08/01 02:17:50;;;;;;;1.30;1.20;;;24.90;58.40;;;;;;5065296;28;20501;-80
2022/08/01 02:20:18;;;;;;;1.73;1.63;;;24.90;58.40;;;;;;5072683;28;20512;-80
2022/08/01 02:22:51;;;;;;;1.83;1.60;;;24.80;58.50;;;;;;5079464;28;20453;-82
2022/08/01 02:25:24;;;;;;;1.80;1.70;;;24.80;57.20;;;;;;5071556;28;21130;-79
2022/08/01 02:28:00;;;;;;;2.00;1.77;;;24.80;57.30;;;;;;5060396;28;20475;-80
2022/08/01 02:30:34;;;;;;;1.57;1.47;;;24.80;58.50;;;;;;5068571;28;20548;-82
2022/08/01 02:33:07;;;;;;;2.10;1.60;;;24.80;59.20;;;;;;5065621;28;20545;-81
2022/08/01 02:35:46;;;;;;;1.97;1.87;;;24.80;58.60;;;;;;5063133;28;20443;-81
2022/08/01 02:38:38;;;;;;;1.73;1.63;;;24.80;59.20;;;;;;5074647;28;20547;-83
2022/08/01 02:41:09;;;;;;;4.63;1.90;;;24.80;59.50;;;;;;5068018;28;20500;-80
2022/08/01 02:43:39;;;;;;;2.03;1.93;;;24.80;59.60;;;;;;5073360;28;20516;-80
2022/08/01 02:46:14;;;;;;;2.03;1.50;;;24.80;61.00;;;;;;5064071;28;20454;-80
2022/08/01 02:48:43;;;;;;;1.80;1.70;;;24.80;80.00;;;;;;5068040;28;21054;-78
2022/08/01 02:51:15;;;;;;;2.00;1.77;;;24.80;62.40;;;;;;5069854;28;20447;-80
2022/08/01 02:53:44;;;;;;;1.97;1.80;;;24.80;62.30;;;;;;5075617;28;20451;-82
2022/08/01 02:56:14;;;;;;;1.43;1.33;;;24.70;62.70;;;;;;5061474;28;20463;-80
2022/08/01 02:58:43;;;;;;;1.73;1.43;;;24.70;62.20;;;;;;5070426;28;20462;-80
2022/08/01 03:01:15;;;;;;;1.70;1.60;;;24.60;62.20;;;;;;5068063;28;20890;-80
2022/08/01 03:03:43;;;;;;;1.80;1.70;;;24.60;62.80;;;;;;5068824;28;20446;-79
2022/08/01 03:06:13;;;;;;;1.90;1.80;;;24.60;62.80;;;;;;5067641;28;20446;-81
2022/08/01 03:08:43;;;;;;;2.63;2.17;;;24.50;63.40;;;;;;5071784;28;20466;-80
2022/08/01 03:11:13;;;;;;;2.00;1.70;;;24.50;64.50;;;;;;5066769;28;20459;-80
2022/08/01 03:13:44;;;;;;;1.50;1.40;;;24.50;64.10;;;;;;5061408;28;20455;-81
2022/08/01 03:16:15;;;;;;;1.60;1.50;;;24.50;65.50;;;;;;5067873;28;20458;-80
2022/08/01 03:18:45;;;;;;;1.73;1.50;;;24.50;66.50;;;;;;5066645;28;20463;-81
2022/08/01 03:21:15;;;;;;;1.90;1.60;;;24.50;67.70;;;;;;5066390;28;20538;-80
2022/08/01 03:23:45;;;;;;;3.60;1.83;;;24.50;68.50;;;;;;5067539;28;20446;-80
2022/08/01 03:26:13;;;;;;;1.70;1.60;;;24.50;67.90;;;;;;5068263;28;20466;-82
2022/08/01 03:28:45;;;;;;;1.40;1.30;;;24.50;69.50;;;;;;5070216;28;20481;-80
2022/08/01 03:31:15;;;;;;;3.83;1.67;;;24.50;70.60;;;;;;5068362;28;20458;-82
2022/08/01 03:33:43;;;;;;;1.70;1.60;;;24.50;71.10;;;;;;5066646;28;20974;-80
2022/08/01 03:36:14;;;;;;;1.67;1.50;;;24.50;74.20;;;;;;5061624;28;20463;-80
2022/08/01 03:38:45;;;;;;;1.57;1.47;;;24.50;70.60;;;;;;5064216;28;20480;-79
2022/08/01 03:41:20;;;;;;;2.20;2.00;;;24.40;70.10;;;;;;5069675;28;20728;-80
2022/08/01 03:43:55;;;;;;;1.73;1.63;;;24.40;69.80;;;;;;5073178;28;20462;-83
2022/08/01 03:46:35;;;;;;;1.70;1.60;;;24.40;69.70;;;;;;5070956;28;21232;-80
2022/08/01 03:49:11;;;;;;;2.20;2.00;;;24.30;68.90;;;;;;5073221;28;20870;-79
2022/08/01 03:51:40;;;;;;;2.13;1.80;;;24.30;70.60;;;;;;5073626;28;20458;-79
2022/08/01 03:54:11;;;;;;;1.90;1.80;;;24.30;70.60;;;;;;5067087;28;20450;-80
2022/08/01 03:56:42;;;;;;;1.50;1.40;;;24.20;70.70;;;;;;5073003;28;20450;-80
2022/08/01 03:59:11;;;;;;;2.00;1.90;;;24.20;71.10;;;;;;5076456;28;20477;-82
2022/08/01 04:01:40;;;;;;;1.67;1.20;;;24.20;73.20;;;;;;5070267;28;20451;-80
2022/08/01 04:04:09;;;;;;;1.60;1.40;;;24.10;74.30;;;;;;5071675;28;20450;-81
2022/08/01 04:06:39;;;;;;;1.83;1.73;;;24.10;75.30;;;;;;5071282;28;20454;-84
2022/08/01 04:09:08;;;;;;;2.13;2.03;;;24.10;75.10;;;;;;5073161;28;20485;-81
2022/08/01 04:11:41;;;;;;;1.70;1.60;;;24.10;72.60;;;;;;5076521;28;20458;-79
2022/08/01 04:14:09;;;;;;;1.83;1.73;;;24.00;73.70;;;;;;5071602;28;21008;-83
2022/08/01 04:16:39;;;;;;;1.60;1.50;;;24.00;78.70;;;;;;5099168;28;20488;-81
2022/08/01 04:19:08;;;;;;;2.13;2.03;;;24.00;74.80;;;;;;5072789;28;20466;-81
2022/08/01 04:21:37;;;;;;;2.40;1.97;;;24.00;74.40;;;;;;5073201;28;20519;-80
2022/08/01 04:24:11;;;;;;;2.33;2.00;;;24.00;76.20;;;;;;5074442;28;20443;-82
2022/08/01 04:26:42;;;;;;;2.17;1.80;;;24.00;74.90;;;;;;5066297;28;20476;-81
2022/08/01 04:29:11;;;;;;;1.97;1.67;;;24.00;75.50;;;;;;5073193;28;20572;-79
2022/08/01 04:31:45;;;;;;;2.20;2.00;;;23.90;76.70;;;;;;5073821;28;20461;-80
2022/08/01 04:34:16;;;;;;;2.20;1.80;;;23.90;78.40;;;;;;5070852;28;20451;-81
2022/08/01 04:36:46;;;;;;;1.90;1.70;;;23.90;78.20;;;;;;5073587;28;20457;-85
2022/08/01 04:39:17;;;;;;;3.07;1.60;;;23.90;79.40;;;;;;5071209;28;21044;-84
2022/08/01 04:41:47;;;;;;;1.77;1.67;;;23.90;78.60;;;;;;5074646;28;20459;-80
2022/08/01 04:44:16;;;;;;;1.90;1.70;;;23.90;79.00;;;;;;5075377;28;20462;-80
2022/08/01 04:46:48;;;;;;;2.17;1.80;;;23.80;81.60;;;;;;5073413;28;20506;-81
2022/08/01 04:49:17;;;;;;;2.90;1.87;;;23.90;81.00;;;;;;5071117;28;20486;-79
2022/08/01 04:51:57;;;;;;;2.40;2.10;;;23.80;82.30;;;;;;5073335;28;20546;-80
2022/08/01 04:54:25;;;;;;;1.73;1.63;;;23.80;80.90;;;;;;5071745;28;20473;-82
2022/08/01 04:56:55;;;;;;;2.80;1.53;;;23.80;82.80;;;;;;5070912;28;20950;-80
2022/08/01 04:59:41;;;;;;;1.90;1.70;;;23.80;84.40;;;;;;5072640;28;20527;-80
2022/08/01 05:02:13;;;;;;;2.43;2.10;;;23.80;86.20;;;;;;5062664;28;20451;-82
2022/08/01 05:04:42;;;;;;;3.73;1.40;;;23.80;85.70;;;;;;5075088;28;20467;-79
2022/08/01 05:07:11;;;;;;;1.97;1.87;;;23.80;86.00;;;;;;5069125;28;20870;-79
2022/08/01 05:09:41;;;;;;;2.00;1.90;;;23.80;87.90;;;;;;5072018;28;20516;-78
2022/08/01 05:12:10;;;;;;;1.80;1.70;;;23.80;89.80;;;;;;5072586;28;20455;-79
2022/08/01 05:14:38;;;;;;;1.60;1.50;;;23.90;90.40;;;;;;5073773;28;21004;-80
2022/08/01 05:17:08;;;;;;;2.43;2.23;;;23.90;92.00;;;;;;5064106;28;21348;-78
2022/08/01 05:19:39;;;;;;;1.90;1.57;;;24.00;91.50;;;;;;5067701;28;20478;-78
2022/08/01 05:22:09;;;;;;;6.63;1.90;;;24.00;91.90;;;;;;5072096;28;20442;-80
2022/08/01 05:24:38;;;;;;;2.23;1.60;;;24.10;93.10;;;;;;5065604;28;20447;-81
2022/08/01 05:27:08;;;;;;;2.13;1.93;;;24.00;92.90;;;;;;5072967;28;20493;-79
2022/08/01 05:29:38;;;;;;;1.67;1.57;;;24.10;94.10;;;;;;5084752;28;21050;-81
2022/08/01 05:32:12;;;;;;;1.73;1.63;;;24.20;95.70;;;;;;5069680;28;20462;-78
2022/08/01 05:34:41;;;;;;;1.70;1.60;;;24.20;94.80;;;;;;5063618;28;20459;-79
2022/08/01 05:37:09;;;;;;;1.57;1.47;;;24.20;97.00;;;;;;5073159;28;20530;-80
2022/08/01 05:39:37;;;;;;;1.50;1.40;;;24.30;96.80;;;;;;5073925;28;20470;-79
2022/08/01 05:42:06;;;;;;;1.70;1.57;;;24.30;98.30;;;;;;5073032;28;20465;-79
2022/08/01 05:44:34;;;;;;;2.47;1.70;;;24.30;98.20;;;;;;5065398;28;20454;-80
2022/08/01 05:47:03;;;;;;;1.57;1.47;;;24.40;99.30;;;;;;5069162;28;20451;-79
2022/08/01 05:49:31;;;;;;;2.17;1.50;;;24.40;97.80;;;;;;5067721;28;20500;-81
2022/08/01 05:52:01;;;;;;;2.70;1.50;;;24.40;98.10;;;;;;5069280;28;20438;-80
2022/08/01 05:54:31;;;;;;;1.80;1.70;;;24.40;98.40;;;;;;5073971;28;20576;-80
2022/08/01 05:57:01;;;;;;;2.00;1.80;;;24.40;98.60;;;;;;5074078;28;20447;-80
2022/08/01 05:59:30;;;;;;;1.67;1.57;;;24.40;99.50;;;;;;5071082;28;20481;-79
2022/08/01 06:01:58;;;;;;;1.70;1.60;;;24.50;99.90;;;;;;5079357;28;20438;-78
2022/08/01 06:04:27;;;;;;;1.60;1.50;;;24.60;99.90;;;;;;5076382;28;20453;-79
2022/08/01 06:06:55;;;;;;;1.47;1.17;;;24.60;99.90;;;;;;5066825;28;20458;-79
2022/08/01 06:09:24;;;;;;;1.57;1.30;;;24.70;99.90;;;;;;5073829;28;20878;-79
2022/08/01 06:11:52;;;;;;;1.70;1.60;;;24.70;99.90;;;;;;5074159;28;20822;-81
2022/08/01 06:14:20;;;;;;;2.77;2.27;;;24.70;99.90;;;;;;5076169;28;20475;-81
2022/08/01 06:16:49;;;;;;;1.50;1.40;;;24.80;99.90;;;;;;5068537;28;20454;-78
2022/08/01 06:19:17;;;;;;;3.20;1.60;;;24.80;99.90;;;;;;5072192;28;20940;-80
2022/08/01 06:21:45;;;;;;;2.20;1.70;;;24.80;99.90;;;;;;5063738;28;20592;-80
2022/08/01 06:24:13;;;;;;;1.47;1.37;;;24.80;99.90;;;;;;5069218;28;20454;-80
2022/08/01 06:26:43;;;;;;;2.10;1.50;;;24.90;99.90;;;;;;5072179;28;20524;-79
2022/08/01 06:29:11;;;;;;;1.57;1.47;;;25.00;99.90;;;;;;5066805;28;20489;-85
2022/08/01 06:31:39;;;;;;;1.30;1.23;;;25.00;99.90;;;;;;5069299;28;20491;-83
2022/08/01 06:34:07;;;;;;;2.00;1.40;;;25.00;99.90;;;;;;5076454;28;20493;-82
2022/08/01 06:36:35;;;;;;;1.47;1.20;;;25.00;99.90;;;;;;5075943;28;20464;-82
2022/08/01 06:39:04;;;;;;;1.50;1.40;;;25.00;99.90;;;;;;5069381;28;21159;-81
2022/08/01 06:41:32;;;;;;;3.03;1.20;;;25.00;99.90;;;;;;5065958;28;20452;-81
2022/08/01 06:44:04;;;;;;;1.33;1.23;;;25.00;99.90;;;;;;5066930;28;20478;-83
2022/08/01 06:46:32;;;;;;;1.37;1.17;;;25.00;99.90;;;;;;5071992;28;20459;-81
2022/08/01 06:49:02;;;;;;;1.40;1.30;;;25.10;99.90;;;;;;5071776;28;20479;-80
2022/08/01 06:51:31;;;;;;;1.20;1.10;;;25.20;99.90;;;;;;5071688;28;20865;-78
2022/08/01 06:54:00;;;;;;;1.20;1.10;;;25.40;99.90;;;;;;5072138;28;20454;-79
2022/08/01 06:56:28;;;;;;;1.40;1.30;;;25.60;99.90;;;;;;5071439;28;20450;-79
2022/08/01 06:59:00;;;;;;;2.50;1.20;;;25.70;99.90;;;;;;5072001;28;20477;-77
2022/08/01 07:01:30;;;;;;;1.43;1.27;;;25.90;99.90;;;;;;5070542;28;20450;-80
2022/08/01 07:04:02;;;;;;;1.30;1.20;;;26.10;99.90;;;;;;5061113;28;20450;-80
2022/08/01 07:06:30;;;;;;;1.13;1.00;;;26.30;99.90;;;;;;5060589;28;20512;-81
2022/08/01 07:08:58;;;;;;;1.43;1.07;;;26.40;99.90;;;;;;5070175;28;20753;-80
2022/08/01 07:11:35;;;;;;;1.00;1.00;;;26.50;99.90;;;;;;5070787;28;20451;-82
2022/08/01 07:14:03;;;;;;;1.80;0.90;;;26.60;99.90;;;;;;5073479;28;20454;-80
2022/08/01 07:16:32;;;;;;;1.20;1.03;;;27.10;99.90;;;;;;5067206;28;20455;-80
2022/08/01 07:19:00;;;;;;;1.00;0.90;;;26.90;99.90;;;;;;5071793;28;20865;-80
2022/08/01 07:21:29;;;;;;;1.00;1.00;;;26.90;99.90;;;;;;5071661;28;20450;-80
2022/08/01 07:24:09;;;;;;;1.20;1.10;;;26.90;99.90;;;;;;5062345;28;20455;-80
2022/08/01 07:26:43;;;;;;;1.10;1.10;;;27.00;99.90;;;;;;5066763;28;20546;-80
2022/08/01 07:29:22;;;;;;;1.47;1.00;;;27.00;99.90;;;;;;5073955;28;20474;-81
2022/08/01 07:31:52;;;;;;;1.53;1.10;;;27.00;99.90;;;;;;5075481;28;20449;-78
2022/08/01 07:34:21;;;;;;;2.10;1.10;;;27.00;99.90;;;;;;5065578;28;20533;-81
2022/08/01 07:36:49;;;;;;;0.90;0.90;;;27.00;99.90;;;;;;5065018;28;20447;-80
2022/08/01 07:39:17;;;;;;;1.30;1.10;;;27.00;99.90;;;;;;5069657;28;20520;-81
2022/08/01 07:41:45;;;;;;;1.23;1.00;;;27.00;99.90;;;;;;5071493;28;20781;-83
2022/08/01 07:44:34;;;;;;;1.20;1.10;;;27.00;99.90;;;;;;5072181;28;20466;-79
2022/08/01 07:47:04;;;;;;;1.20;1.10;;;27.10;99.90;;;;;;5070167;28;20434;-79
2022/08/01 07:49:32;;;;;;;1.60;1.00;;;27.10;99.90;;;;;;5054216;28;20483;-80
2022/08/01 07:52:07;;;;;;;1.30;1.20;;;27.00;99.90;;;;;;5062433;28;20458;-80
2022/08/01 07:54:35;;;;;;;1.40;1.30;;;27.00;99.90;;;;;;5071575;28;20449;-79
2022/08/01 07:57:04;;;;;;;1.43;1.33;;;27.00;99.90;;;;;;5067343;28;20447;-82
2022/08/01 07:59:32;;;;;;;1.20;1.10;;;27.00;99.90;;;;;;5061543;28;20532;-80
2022/08/01 08:02:01;;;;;;;1.30;1.20;;;27.00;99.90;;;;;;5065942;28;20447;-80
2022/08/01 08:04:31;;;;;;;1.50;1.40;;;27.00;99.90;;;;;;5058853;28;20543;-79
2022/08/01 08:06:59;;;;;;;1.50;1.40;;;27.00;99.90;;;;;;5079083;28;20450;-79
2022/08/01 08:09:27;;;;;;;2.33;1.40;;;27.00;99.90;;;;;;5073168;28;20483;-83
2022/08/01 08:11:55;;;;;;;2.17;1.17;;;27.00;99.90;;;;;;5068310;28;20455;-81
2022/08/01 08:14:24;;;;;;;1.33;1.23;;;27.00;99.90;;;;;;5069468;28;20439;-79
2022/08/01 08:16:59;;;;;;;2.17;1.40;;;27.00;99.90;;;;;;5069845;28;20454;-78
2022/08/01 08:19:33;;;;;;;1.60;1.50;;;27.00;99.90;;;;;;5070604;28;20471;-80
2022/08/01 08:22:06;;;;;;;1.67;1.57;;;27.00;99.90;;;;;;5071394;28;20812;-78
2022/08/01 08:24:36;;;;;;;1.97;1.40;;;27.00;99.90;;;;;;5072108;28;21132;-80
2022/08/01 08:27:14;;;;;;;1.50;1.40;;;27.00;99.90;;;;;;5084975;28;20502;-80
2022/08/01 08:29:43;;;;;;;1.93;1.40;;;27.00;99.90;;;;;;5074330;28;20994;-83
2022/08/01 08:32:12;;;;;;;1.73;1.50;;;27.10;99.90;;;;;;5074453;28;20443;-79
2022/08/01 08:34:41;;;;;;;1.80;1.70;;;27.10;99.90;;;;;;5074285;28;20500;-79
2022/08/01 08:37:10;;;;;;;1.63;1.53;;;27.20;99.90;;;;;;5070433;28;20516;-80
2022/08/01 08:39:39;;;;;;;1.73;1.63;;;27.20;99.90;;;;;;5071854;28;21037;-80
2022/08/01 08:42:11;;;;;;;1.80;1.70;;;27.20;99.90;;;;;;5075947;28;20938;-80
2022/08/01 08:44:42;;;;;;;1.83;1.60;;;27.20;99.90;;;;;;5073903;28;20487;-81
2022/08/01 08:47:13;;;;;;;1.70;1.60;;;27.20;99.90;;;;;;5074216;28;20912;-80
2022/08/01 08:49:49;;;;;;;2.17;2.00;;;27.30;99.90;;;;;;5074041;28;20887;-79
2022/08/01 08:52:20;;;;;;;3.13;1.60;;;27.30;99.90;;;;;;5074163;28;20461;-81
2022/08/01 08:54:50;;;;;;;2.57;1.90;;;27.30;99.90;;;;;;5074089;28;20465;-79
2022/08/01 08:57:21;;;;;;;1.70;1.60;;;27.20;99.90;;;;;;5071072;28;20450;-79
2022/08/01 08:59:52;;;;;;;2.43;1.87;;;27.30;99.90;;;;;;5072848;28;20470;-79
2022/08/01 09:02:21;;;;;;;2.10;1.90;;;27.30;99.90;;;;;;5073762;28;20454;-82
2022/08/01 09:04:52;;;;;;;1.97;1.77;;;27.30;99.90;;;;;;5073350;28;20446;-80
2022/08/01 09:07:20;;;;;;;2.17;1.63;;;27.30;99.90;;;;;;5065478;28;20473;-80
2022/08/01 09:09:49;;;;;;;1.90;1.80;;;27.30;99.90;;;;;;5072863;28;20474;-79
2022/08/01 09:12:19;;;;;;;2.17;2.00;;;27.30;99.90;;;;;;5073189;28;20496;-80
2022/08/01 09:14:49;;;;;;;2.17;1.87;;;27.30;99.90;;;;;;5063240;28;20534;-80
2022/08/01 09:17:18;;;;;;;1.77;1.67;;;27.30;99.90;;;;;;5081262;28;20445;-79
2022/08/01 09:19:47;;;;;;;1.70;1.60;;;27.30;99.90;;;;;;5073955;28;20478;-79
2022/08/01 09:22:20;;;;;;;1.97;1.87;;;27.30;99.90;;;;;;5072718;28;20459;-81
2022/08/01 09:25:00;;;;;;;2.00;1.80;;;27.30;99.90;;;;;;5073176;28;20454;-79
2022/08/01 09:27:29;;;;;;;2.80;1.90;;;27.30;99.90;;;;;;5073364;28;20446;-79
2022/08/01 09:30:10;;;;;;;1.87;1.70;;;27.30;99.90;;;;;;5066435;28;20498;-80
2022/08/01 09:32:54;;;;;;;1.63;1.53;;;27.30;99.90;;;;;;5075178;28;20453;-79
2022/08/01 09:35:27;;;;;;;2.23;1.90;;;27.30;99.90;;;;;;5066526;28;20494;-83
2022/08/01 09:38:17;;;;;;;2.10;2.00;;;27.30;99.90;;;;;;5072551;28;20457;-78
2022/08/01 09:40:47;;;;;;;2.63;2.43;;;27.30;99.90;;;;;;5073577;28;20533;-83
2022/08/01 09:43:16;;;;;;;2.30;2.10;;;27.40;99.90;;;;;;5066362;28;20491;-83
2022/08/01 09:45:46;;;;;;;2.40;2.20;;;27.40;99.90;;;;;;5072238;28;20455;-80
2022/08/01 09:48:20;;;;;;;1.70;1.60;;;27.40;99.90;;;;;;5074037;28;20475;-80
2022/08/01 09:50:56;;;;;;;2.90;2.60;;;27.40;99.90;;;;;;5081978;28;20834;-78
2022/08/01 09:53:47;;;;;;;3.07;2.87;;;27.40;99.90;;;;;;5075491;28;20956;-79
2022/08/01 09:56:21;;;;;;;3.80;3.50;;;27.40;99.90;;;;;;5076038;28;20457;-80
2022/08/01 09:58:51;;;;;;;3.20;3.00;;;27.40;99.90;;;;;;5077680;28;20472;-80
2022/08/01 10:01:28;;;;;;;3.00;2.80;;;27.40;99.90;;;;;;5071503;28;20466;-87
2022/08/01 10:04:10;;;;;;;2.80;2.60;;;27.40;99.90;;;;;;5075935;28;20522;-82
2022/08/01 10:09:38;;;;;;;2.70;2.50;;;27.40;99.90;;;;;;5070370;28;20481;-81
2022/08/01 10:12:09;;;;;;;3.00;2.23;;;27.40;99.90;;;;;;5078969;28;20538;-80
2022/08/01 10:14:43;;;;;;;2.80;2.60;;;27.40;99.90;;;;;;5073768;28;20541;-79
2022/08/01 10:17:15;;;;;;;2.37;2.20;;;27.40;99.90;;;;;;5069430;28;20443;-79
2022/08/01 10:19:49;;;;;;;2.00;1.90;;;27.50;99.90;;;;;;5072523;28;20466;-80
2022/08/01 10:22:20;;;;;;;2.90;2.70;;;27.50;99.90;;;;;;5074144;28;20446;-80
2022/08/01 10:24:55;;;;;;;2.10;2.00;;;27.50;99.90;;;;;;5063606;28;20524;-80
2022/08/01 10:27:24;;;;;;;3.20;2.70;;;27.50;99.90;;;;;;5073113;28;20446;-80
2022/08/01 10:30:09;;;;;;;2.53;2.30;;;27.50;99.90;;;;;;5059327;28;20497;-81
2022/08/01 10:32:51;;;;;;;3.03;2.40;;;27.50;99.90;;;;;;5065555;28;20499;-80
2022/08/01 10:35:22;;;;;;;4.30;2.47;;;27.50;99.90;;;;;;5063057;28;20447;-80
2022/08/01 10:38:11;;;;;;;2.00;1.80;;;27.60;99.90;;;;;;5073880;28;20470;-82
2022/08/01 10:40:43;;;;;;;2.40;2.20;;;27.60;99.90;;;;;;5066038;28;20455;-81
2022/08/01 10:43:12;;;;;;;2.70;2.27;;;27.70;99.90;;;;;;5073158;28;20451;-81
2022/08/01 10:45:49;;;;;;;1.70;1.60;;;27.80;99.90;;;;;;5073876;28;20505;-80
2022/08/01 10:48:23;;;;;;;1.80;1.70;;;27.80;99.90;;;;;;5070233;28;20474;-81
2022/08/01 10:50:54;;;;;;;1.90;1.80;;;27.80;99.90;;;;;;5074064;28;20543;-80
2022/08/01 10:53:25;;;;;;;1.73;1.63;;;27.80;99.90;;;;;;5081995;28;20454;-79
2022/08/01 10:56:02;;;;;;;2.00;1.90;;;27.80;99.90;;;;;;5073410;28;20747;-80
2022/08/01 10:58:33;;;;;;;2.00;1.80;;;27.90;99.90;;;;;;5071148;28;21059;-83
2022/08/01 11:01:24;;;;;;;2.00;1.80;;;27.90;99.90;;;;;;5078794;28;20456;-81
2022/08/01 11:04:09;;;;;;;2.60;1.97;;;27.90;99.90;;;;;;5070353;28;21295;-80
2022/08/01 11:07:04;;;;;;;2.27;1.50;;;27.80;99.90;;;;;;5071799;28;20465;-83
2022/08/01 11:09:41;;;;;;;1.60;1.50;;;27.80;99.90;;;;;;5071501;28;20474;-79
2022/08/01 11:12:15;;;;;;;1.87;1.53;;;27.80;99.90;;;;;;5065350;28;20459;-80
2022/08/01 11:15:25;;;;;;;1.70;1.60;;;27.70;99.90;;;;;;5110238;27;20456;-81
2022/08/01 11:18:02;;;;;;;2.03;1.93;;;27.70;99.90;;;;;;5063090;28;20893;-80
2022/08/01 11:20:33;;;;;;;1.57;1.30;;;27.70;99.90;;;;;;5070386;28;20450;-85
2022/08/01 11:23:31;;;;;;;1.47;1.37;;;27.70;99.90;;;;;;5059909;28;20450;-79
2022/08/01 11:26:11;;;;;;;1.50;1.40;;;27.70;99.90;;;;;;5079287;28;20798;-80
2022/08/01 11:28:44;;;;;;;1.87;1.63;;;27.70;99.90;;;;;;5071089;28;21146;-79
2022/08/01 11:31:33;;;;;;;2.73;1.57;;;27.70;99.90;;;;;;5074358;28;20568;-80
2022/08/01 11:34:05;;;;;;;1.50;1.40;;;27.70;99.90;;;;;;5077449;28;20454;-81
2022/08/01 11:36:33;;;;;;;1.60;1.50;;;27.70;99.90;;;;;;5071846;28;20450;-82
2022/08/01 11:39:21;;;;;;;1.30;1.20;;;27.80;99.90;;;;;;5070892;28;20477;-82
2022/08/01 11:41:50;;;;;;;3.30;1.50;;;27.80;99.90;;;;;;5074538;28;20434;-81
2022/08/01 11:44:33;;;;;;;1.50;1.40;;;27.80;99.90;;;;;;5069823;28;20465;-80
2022/08/01 11:47:06;;;;;;;1.63;1.53;;;27.80;99.90;;;;;;5071961;28;20515;-79
2022/08/01 11:49:50;;;;;;;2.00;1.40;;;27.80;99.90;;;;;;5075046;28;20469;-79
2022/08/01 11:52:24;;;;;;;5.30;1.87;;;27.80;99.90;;;;;;5068607;28;20474;-81
2022/08/01 11:54:54;;;;;;;1.70;1.60;;;27.80;99.90;;;;;;5070780;28;20447;-80
2022/08/01 11:57:25;;;;;;;2.17;1.97;;;27.70;99.90;;;;;;5076676;28;20550;-80
2022/08/01 12:00:11;;;;;;;1.60;1.50;;;27.70;99.90;;;;;;5065085;28;20475;-80
2022/08/01 12:02:44;;;;;;;1.57;1.47;;;27.70;99.90;;;;;;5074145;28;20438;-80
2022/08/01 12:05:17;;;;;;;1.70;1.60;;;27.70;99.90;;;;;;5075891;28;20511;-80
2022/08/01 12:07:50;;;;;;;1.57;1.47;;;27.70;99.90;;;;;;5068982;28;20470;-80
2022/08/01 12:10:19;;;;;;;1.63;1.50;;;27.70;99.90;;;;;;5069546;28;20815;-79
2022/08/01 12:12:49;;;;;;;1.77;1.50;;;27.70;99.90;;;;;;5074403;28;20478;-81
2022/08/01 12:15:20;;;;;;;1.50;1.40;;;27.70;99.90;;;;;;5069826;28;20512;-79
2022/08/01 12:17:50;;;;;;;1.93;1.83;;;27.80;99.90;;;;;;5068421;28;20467;-83
2022/08/01 12:20:27;;;;;;;1.60;1.50;;;27.80;99.90;;;;;;5074292;28;20458;-80
2022/08/01 12:22:59;;;;;;;1.60;1.50;;;27.80;99.90;;;;;;5073355;28;20485;-81
2022/08/01 12:25:28;;;;;;;2.70;1.57;;;27.80;99.90;;;;;;5070340;28;20450;-81
2022/08/01 12:27:59;;;;;;;1.60;1.50;;;27.80;99.90;;;;;;5080588;28;20454;-82
2022/08/01 12:30:31;;;;;;;1.70;1.57;;;27.90;99.90;;;;;;5069208;28;20968;-80
2022/08/01 12:32:59;;;;;;;1.50;1.40;;;27.90;99.90;;;;;;5076085;28;20481;-79
2022/08/01 12:35:29;;;;;;;1.87;1.30;;;27.90;99.90;;;;;;5082986;28;20461;-78
2022/08/01 12:37:59;;;;;;;2.60;1.40;;;27.90;99.90;;;;;;5075817;28;20472;-80
2022/08/01 12:40:29;;;;;;;1.47;1.37;;;27.90;99.90;;;;;;5079675;28;20454;-80
2022/08/01 12:42:59;;;;;;;1.87;1.40;;;27.90;99.90;;;;;;5081995;28;20999;-80
2022/08/01 12:45:33;;;;;;;1.30;1.20;;;27.90;99.90;;;;;;5068737;28;20993;-80
2022/08/01 12:48:02;;;;;;;1.50;1.40;;;27.90;99.90;;;;;;5078390;28;20441;-80
2022/08/01 12:50:32;;;;;;;2.73;1.43;;;27.90;99.90;;;;;;5081069;28;20496;-81
2022/08/01 12:53:02;;;;;;;1.50;1.40;;;27.90;99.90;;;;;;5070125;28;20465;-80
2022/08/01 12:55:36;;;;;;;1.80;1.70;;;27.90;99.90;;;;;;5073704;28;20518;-81
2022/08/01 12:58:24;;;;;;;1.70;1.23;;;28.00;99.90;;;;;;5070642;28;20478;-82
2022/08/01 13:01:05;;;;;;;1.63;1.27;;;28.00;99.90;;;;;;5071498;28;20501;-80
2022/08/01 13:03:34;;;;;;;1.90;1.70;;;28.00;99.90;;;;;;5062163;28;20469;-81
2022/08/01 13:06:10;;;;;;;2.23;1.10;;;28.00;99.90;;;;;;5073373;28;20447;-79
2022/08/01 13:08:38;;;;;;;1.50;1.40;;;28.00;99.90;;;;;;5072513;28;20489;-83
2022/08/01 13:11:09;;;;;;;1.70;1.40;;;28.10;99.90;;;;;;5075980;28;20447;-80
2022/08/01 13:13:40;;;;;;;1.60;1.50;;;28.10;99.90;;;;;;5069929;28;20470;-80
2022/08/01 13:16:10;;;;;;;1.60;1.50;;;28.20;99.90;;;;;;5075967;28;20508;-81